Time;durP1;ratioP1;P1;durP2;ratioP2;P2;SDS_P1;SDS_P2;PMS_P1;PMS_P2;Temp;Humidity;BMP_temperature;BMP_pressure;BME280_temperature;BME280_humidity;BME280_pressure;Samples;Min_cycle;Max_cycle;Signal;HPM_P1;HPM_P2
2023/06/29 00:01:55;;;;;;;19.75;8.68;;;18.50;99.90;;;;;;5066487;28;20402;-72
2023/06/29 00:04:25;;;;;;;18.35;8.05;;;18.50;99.90;;;;;;5078220;28;20036;-72
2023/06/29 00:06:54;;;;;;;16.92;7.65;;;18.50;99.90;;;;;;5059045;28;20051;-72
2023/06/29 00:09:21;;;;;;;18.15;8.05;;;18.50;99.90;;;;;;5064483;28;20393;-72
2023/06/29 00:11:47;;;;;;;23.35;8.15;;;18.50;99.90;;;;;;5068831;28;20060;-72
2023/06/29 00:14:12;;;;;;;17.75;8.10;;;18.50;99.90;;;;;;5066878;28;20060;-72
2023/06/29 00:16:38;;;;;;;16.83;8.40;;;18.50;99.90;;;;;;5063147;28;20174;-72
2023/06/29 00:19:03;;;;;;;17.67;8.82;;;18.50;99.90;;;;;;5060509;28;20032;-72
2023/06/29 00:21:29;;;;;;;16.52;7.97;;;18.50;99.90;;;;;;5066527;28;20029;-72
2023/06/29 00:23:55;;;;;;;16.67;7.85;;;18.50;99.90;;;;;;5067685;28;20082;-72
2023/06/29 00:26:21;;;;;;;18.20;8.35;;;18.50;99.90;;;;;;5058932;28;20052;-72
2023/06/29 00:28:46;;;;;;;16.25;8.27;;;18.50;99.90;;;;;;5067009;28;20048;-72
2023/06/29 00:31:12;;;;;;;16.02;8.15;;;18.50;99.90;;;;;;5071792;28;20382;-72
2023/06/29 00:33:38;;;;;;;17.95;8.32;;;18.50;99.90;;;;;;5068416;28;20036;-72
2023/06/29 00:36:03;;;;;;;17.42;8.18;;;18.50;99.90;;;;;;5068201;28;20039;-72
2023/06/29 00:38:29;;;;;;;15.93;7.85;;;18.50;99.90;;;;;;5083371;28;20062;-72
2023/06/29 00:40:55;;;;;;;20.35;8.85;;;18.50;99.90;;;;;;5062615;28;20554;-72
2023/06/29 00:43:20;;;;;;;17.30;8.95;;;18.50;99.90;;;;;;5062002;28;20037;-72
2023/06/29 00:45:46;;;;;;;21.13;8.63;;;18.50;99.90;;;;;;5066654;28;20387;-72
2023/06/29 00:48:12;;;;;;;15.15;8.75;;;18.40;99.90;;;;;;5066951;28;20117;-72
2023/06/29 00:50:39;;;;;;;18.63;8.77;;;18.40;99.90;;;;;;5063102;28;20040;-72
2023/06/29 00:53:04;;;;;;;18.80;9.00;;;18.50;99.90;;;;;;5080134;28;20086;-72
2023/06/29 00:55:30;;;;;;;19.08;7.97;;;18.40;99.90;;;;;;5066347;28;20052;-72
2023/06/29 00:57:56;;;;;;;17.75;7.70;;;18.40;99.90;;;;;;5063226;28;20040;-72
2023/06/29 01:00:21;;;;;;;21.48;9.68;;;18.40;99.90;;;;;;5074518;28;20036;-72
2023/06/29 01:02:48;;;;;;;17.27;8.45;;;18.40;99.90;;;;;;5064004;28;20715;-72
2023/06/29 01:05:16;;;;;;;17.17;8.45;;;18.40;99.90;;;;;;5062312;28;20075;-72
2023/06/29 01:07:46;;;;;;;17.90;7.72;;;18.40;99.90;;;;;;5065003;28;20553;-72
2023/06/29 01:10:17;;;;;;;15.05;8.30;;;18.40;99.90;;;;;;5067277;28;20037;-72
2023/06/29 01:12:43;;;;;;;18.98;8.43;;;18.40;99.90;;;;;;5065150;28;20123;-72
2023/06/29 01:15:11;;;;;;;19.85;8.38;;;18.40;99.90;;;;;;5066505;28;20045;-72
2023/06/29 01:17:37;;;;;;;19.25;9.07;;;18.40;99.90;;;;;;5079081;28;20040;-72
2023/06/29 01:20:09;;;;;;;15.07;8.43;;;18.40;99.90;;;;;;5067777;28;20025;-72
2023/06/29 01:22:59;;;;;;;20.08;8.32;;;18.40;99.90;;;;;;5064604;28;20399;-72
2023/06/29 01:25:27;;;;;;;18.98;8.95;;;18.40;99.90;;;;;;5056966;28;20061;-73
2023/06/29 01:27:52;;;;;;;20.25;8.50;;;18.40;99.90;;;;;;5060926;28;20043;-72
2023/06/29 01:30:18;;;;;;;19.38;8.88;;;18.40;99.90;;;;;;5060807;28;20041;-72
2023/06/29 01:32:44;;;;;;;19.55;8.30;;;18.40;99.90;;;;;;5048667;28;20387;-71
2023/06/29 01:35:11;;;;;;;23.20;9.15;;;18.40;99.90;;;;;;5063917;28;20410;-72
2023/06/29 01:37:47;;;;;;;20.60;9.07;;;18.40;99.90;;;;;;5060617;28;20501;-72
2023/06/29 01:40:18;;;;;;;18.40;8.10;;;18.40;99.90;;;;;;5064869;28;20036;-72
2023/06/29 01:42:45;;;;;;;21.08;9.00;;;18.40;99.90;;;;;;5064119;28;20402;-72
2023/06/29 01:45:12;;;;;;;16.13;8.60;;;18.40;99.90;;;;;;5063379;28;20082;-73
2023/06/29 01:47:38;;;;;;;20.77;9.00;;;18.40;99.90;;;;;;5063587;28;20037;-72
2023/06/29 01:50:04;;;;;;;17.30;8.07;;;18.40;99.90;;;;;;5063683;28;20033;-72
2023/06/29 01:52:30;;;;;;;21.60;9.40;;;18.40;99.90;;;;;;5067033;28;20056;-72
2023/06/29 01:54:56;;;;;;;19.63;8.85;;;18.30;99.90;;;;;;5065672;28;20032;-72
2023/06/29 01:57:21;;;;;;;19.15;8.90;;;18.40;99.90;;;;;;5060347;28;20222;-72
2023/06/29 01:59:47;;;;;;;17.40;8.80;;;18.40;99.90;;;;;;5059829;28;20036;-72
2023/06/29 02:02:13;;;;;;;18.73;8.88;;;18.30;99.90;;;;;;5079791;28;20127;-72
2023/06/29 02:04:39;;;;;;;16.38;8.35;;;18.30;99.90;;;;;;5079477;28;20036;-72
2023/06/29 02:07:04;;;;;;;16.17;8.15;;;18.30;99.90;;;;;;5069235;28;20045;-72
2023/06/29 02:09:30;;;;;;;21.83;9.48;;;18.30;99.90;;;;;;5077500;28;20036;-72
2023/06/29 02:11:56;;;;;;;17.30;7.93;;;18.30;99.90;;;;;;5065498;28;20048;-72
2023/06/29 02:14:21;;;;;;;19.17;8.52;;;18.30;99.90;;;;;;5067697;28;20075;-72
2023/06/29 02:16:47;;;;;;;21.33;8.98;;;18.30;99.90;;;;;;5066600;28;20397;-72
2023/06/29 02:19:13;;;;;;;17.40;8.50;;;18.30;99.90;;;;;;5061268;28;20044;-72
2023/06/29 02:21:39;;;;;;;20.77;9.23;;;18.30;99.90;;;;;;5045049;28;20040;-72
2023/06/29 02:24:05;;;;;;;17.33;8.27;;;18.30;99.90;;;;;;5064677;28;20041;-72
2023/06/29 02:26:30;;;;;;;16.02;8.40;;;18.30;99.90;;;;;;5044325;28;20958;-72
2023/06/29 02:28:56;;;;;;;22.38;9.50;;;18.30;99.90;;;;;;5056943;28;20425;-72
2023/06/29 02:31:22;;;;;;;21.17;9.13;;;18.30;99.90;;;;;;5063493;28;20036;-72
2023/06/29 02:33:48;;;;;;;20.80;9.30;;;18.30;99.90;;;;;;5079824;28;20071;-72
2023/06/29 02:36:15;;;;;;;21.38;9.02;;;18.30;99.90;;;;;;5063806;28;20051;-72
2023/06/29 02:38:41;;;;;;;19.85;9.07;;;18.30;99.90;;;;;;5047800;28;20572;-72
2023/06/29 02:41:07;;;;;;;16.73;8.02;;;18.30;99.90;;;;;;5066950;28;20081;-72
2023/06/29 02:43:33;;;;;;;19.33;9.55;;;18.30;99.90;;;;;;5065870;28;20071;-72
2023/06/29 02:45:59;;;;;;;17.60;8.52;;;18.30;99.90;;;;;;5068512;28;20519;-72
2023/06/29 02:48:25;;;;;;;19.83;9.20;;;18.30;99.90;;;;;;5057079;28;20074;-72
2023/06/29 02:50:50;;;;;;;19.77;9.45;;;18.30;99.90;;;;;;5068054;28;20036;-72
2023/06/29 02:53:16;;;;;;;22.42;10.43;;;18.30;99.90;;;;;;5063675;28;20055;-72
2023/06/29 02:55:42;;;;;;;19.20;8.70;;;18.30;99.90;;;;;;5072417;28;20040;-72
2023/06/29 02:58:08;;;;;;;18.00;8.90;;;18.30;99.90;;;;;;5080744;28;20035;-72
2023/06/29 03:00:33;;;;;;;21.67;9.93;;;18.30;99.90;;;;;;5067830;28;20044;-72
2023/06/29 03:02:59;;;;;;;22.13;10.73;;;18.30;99.90;;;;;;5067934;28;20047;-72
2023/06/29 03:05:25;;;;;;;21.67;9.45;;;18.20;99.90;;;;;;5064312;28;20177;-72
2023/06/29 03:07:50;;;;;;;19.65;9.32;;;18.30;99.90;;;;;;5076425;28;20588;-72
2023/06/29 03:10:16;;;;;;;19.38;8.82;;;18.30;99.90;;;;;;5069054;28;20076;-72
2023/06/29 03:12:42;;;;;;;22.65;9.68;;;18.30;99.90;;;;;;5071419;28;20041;-72
2023/06/29 03:15:08;;;;;;;17.35;9.18;;;18.30;99.90;;;;;;5067635;28;20282;-72
2023/06/29 03:17:34;;;;;;;22.83;10.07;;;18.20;99.90;;;;;;5068907;28;20041;-72
2023/06/29 03:19:59;;;;;;;20.92;9.63;;;18.20;99.90;;;;;;5063298;28;20036;-72
2023/06/29 03:22:26;;;;;;;19.48;8.52;;;18.20;99.90;;;;;;5082852;28;20036;-72
2023/06/29 03:24:52;;;;;;;19.52;9.48;;;18.30;99.90;;;;;;5075877;28;20057;-72
2023/06/29 03:27:19;;;;;;;20.92;8.85;;;18.20;99.90;;;;;;5063350;28;20044;-72
2023/06/29 03:29:45;;;;;;;19.83;9.00;;;18.30;99.90;;;;;;5067440;28;20397;-72
2023/06/29 03:32:10;;;;;;;22.45;9.20;;;18.30;99.90;;;;;;5065512;28;20224;-72
2023/06/29 03:34:36;;;;;;;22.65;9.95;;;18.30;99.90;;;;;;5060904;28;20037;-72
2023/06/29 03:37:02;;;;;;;20.45;8.93;;;18.30;99.90;;;;;;5060357;28;20043;-72
2023/06/29 03:39:27;;;;;;;20.08;9.77;;;18.30;99.90;;;;;;5071457;28;20044;-72
2023/06/29 03:41:53;;;;;;;16.98;9.05;;;18.30;99.90;;;;;;5069403;28;20044;-72
2023/06/29 03:44:18;;;;;;;19.50;8.90;;;18.30;99.90;;;;;;5064837;28;20043;-73
2023/06/29 03:46:44;;;;;;;20.95;9.80;;;18.30;99.90;;;;;;5061876;28;20029;-72
2023/06/29 03:49:09;;;;;;;22.73;9.02;;;18.30;99.90;;;;;;5061609;28;20136;-72
2023/06/29 03:51:35;;;;;;;18.30;8.77;;;18.30;99.90;;;;;;5068848;28;20084;-72
2023/06/29 03:54:00;;;;;;;21.00;9.60;;;18.30;99.90;;;;;;5080236;28;20065;-72
2023/06/29 03:56:26;;;;;;;18.55;9.07;;;18.30;99.90;;;;;;5064459;28;20083;-72
2023/06/29 03:58:52;;;;;;;20.25;8.68;;;18.30;99.90;;;;;;5066424;28;20387;-72
2023/06/29 04:01:17;;;;;;;18.55;8.98;;;18.30;99.90;;;;;;5067186;28;20386;-72
2023/06/29 04:03:43;;;;;;;18.73;8.60;;;18.30;99.90;;;;;;5046461;28;20101;-72
2023/06/29 04:06:09;;;;;;;19.70;9.55;;;18.30;99.90;;;;;;5045619;28;20036;-72
2023/06/29 04:08:34;;;;;;;20.25;9.07;;;18.30;99.90;;;;;;5063479;28;20183;-72
2023/06/29 04:11:00;;;;;;;18.35;8.27;;;18.30;99.90;;;;;;5061123;28;20040;-72
2023/06/29 04:13:25;;;;;;;24.10;9.48;;;18.30;99.90;;;;;;5066192;28;20406;-72
2023/06/29 04:15:53;;;;;;;21.50;9.45;;;18.40;99.90;;;;;;5066077;28;20024;-72
2023/06/29 04:18:19;;;;;;;20.40;9.02;;;18.40;99.90;;;;;;5063625;28;20463;-72
2023/06/29 04:20:44;;;;;;;19.65;8.40;;;18.40;99.90;;;;;;5066784;28;20032;-72
2023/06/29 04:23:14;;;;;;;20.33;9.68;;;18.40;99.90;;;;;;5068169;28;20088;-73
2023/06/29 04:25:42;;;;;;;17.95;9.15;;;18.40;99.90;;;;;;5069624;28;20057;-73
2023/06/29 04:28:09;;;;;;;18.63;9.82;;;18.40;99.90;;;;;;5050997;28;20040;-72
2023/06/29 04:30:36;;;;;;;16.80;7.85;;;18.40;99.90;;;;;;5064786;28;20033;-72
2023/06/29 04:33:09;;;;;;;16.13;7.78;;;18.40;99.90;;;;;;5065179;28;20064;-72
2023/06/29 04:35:44;;;;;;;21.83;9.48;;;18.40;99.90;;;;;;5063673;28;20029;-72
2023/06/29 04:38:11;;;;;;;21.67;8.63;;;18.50;99.90;;;;;;5060134;28;20086;-72
2023/06/29 04:40:37;;;;;;;17.60;8.40;;;18.40;99.90;;;;;;5069473;28;20085;-72
2023/06/29 04:43:03;;;;;;;18.83;8.68;;;18.50;99.90;;;;;;5046923;28;20067;-72
2023/06/29 04:45:31;;;;;;;20.80;8.98;;;18.50;99.90;;;;;;5047349;28;20036;-73
2023/06/29 04:47:58;;;;;;;21.75;9.25;;;18.50;99.90;;;;;;5059122;28;20112;-72
2023/06/29 04:50:25;;;;;;;21.83;9.32;;;18.50;99.90;;;;;;5065809;28;20180;-72
2023/06/29 04:52:55;;;;;;;17.48;8.70;;;18.50;99.90;;;;;;5065171;28;20417;-72
2023/06/29 04:55:20;;;;;;;23.60;10.40;;;18.60;99.90;;;;;;5059152;28;20037;-72
2023/06/29 04:57:46;;;;;;;19.80;8.63;;;18.60;99.90;;;;;;5062378;28;20093;-72
2023/06/29 05:00:12;;;;;;;19.35;9.02;;;18.60;99.90;;;;;;5064156;28;20504;-72
2023/06/29 05:02:38;;;;;;;20.85;9.00;;;18.70;99.90;;;;;;5064909;28;20046;-72
2023/06/29 05:05:08;;;;;;;20.05;8.52;;;18.70;99.90;;;;;;5061763;28;20040;-72
2023/06/29 05:07:34;;;;;;;20.42;9.23;;;18.70;99.90;;;;;;5049886;28;20752;-72
2023/06/29 05:10:01;;;;;;;18.92;7.95;;;18.80;99.90;;;;;;5079363;28;20045;-72
2023/06/29 05:12:26;;;;;;;21.02;8.90;;;18.80;99.90;;;;;;5063549;28;20052;-72
2023/06/29 05:14:52;;;;;;;20.52;9.55;;;18.80;99.90;;;;;;5056231;28;20036;-72
2023/06/29 05:17:18;;;;;;;20.08;9.60;;;18.90;99.90;;;;;;5063953;28;20036;-72
2023/06/29 05:19:44;;;;;;;19.50;8.95;;;18.90;99.90;;;;;;5068036;28;20482;-72
2023/06/29 05:22:10;;;;;;;17.25;9.10;;;19.00;99.90;;;;;;5055089;28;20032;-72
2023/06/29 05:24:37;;;;;;;22.58;9.93;;;18.90;99.90;;;;;;5058849;28;20109;-72
2023/06/29 05:27:06;;;;;;;23.00;9.45;;;18.90;99.90;;;;;;5064901;28;20355;-72
2023/06/29 05:29:31;;;;;;;21.40;9.57;;;19.00;99.90;;;;;;5064553;28;20048;-72
2023/06/29 05:31:57;;;;;;;21.65;9.02;;;19.00;99.90;;;;;;5066380;28;20067;-72
2023/06/29 05:34:22;;;;;;;20.50;8.75;;;19.00;99.90;;;;;;5064607;28;20037;-72
2023/06/29 05:36:48;;;;;;;19.50;8.85;;;19.10;99.90;;;;;;5052953;28;20066;-72
2023/06/29 05:39:14;;;;;;;19.40;9.18;;;18.90;99.90;;;;;;5063978;28;20066;-72
2023/06/29 05:41:39;;;;;;;17.45;8.68;;;19.00;99.90;;;;;;5067344;28;20044;-72
2023/06/29 05:44:06;;;;;;;21.80;9.55;;;19.10;99.90;;;;;;5057324;28;20055;-72
2023/06/29 05:46:35;;;;;;;21.15;9.52;;;19.20;99.90;;;;;;5078341;28;20086;-72
2023/06/29 05:49:02;;;;;;;20.73;9.07;;;19.20;99.90;;;;;;5069462;28;20029;-73
2023/06/29 05:51:27;;;;;;;22.00;9.27;;;19.30;99.90;;;;;;5064844;28;20037;-72
2023/06/29 05:53:53;;;;;;;20.63;8.90;;;19.40;99.90;;;;;;5066610;28;20034;-72
2023/06/29 05:56:18;;;;;;;21.38;9.27;;;19.40;99.90;;;;;;5079170;28;20105;-72
2023/06/29 05:58:46;;;;;;;19.05;8.90;;;19.50;99.90;;;;;;5067065;28;20060;-72
2023/06/29 06:01:12;;;;;;;20.30;9.10;;;19.50;99.90;;;;;;5063089;28;20025;-72
2023/06/29 06:03:38;;;;;;;20.27;8.75;;;19.60;99.90;;;;;;5041869;28;20081;-72
2023/06/29 06:06:04;;;;;;;19.50;9.38;;;19.60;99.90;;;;;;5063924;28;20456;-72
2023/06/29 06:08:29;;;;;;;21.20;9.18;;;19.70;99.90;;;;;;5060801;28;20036;-72
2023/06/29 06:10:55;;;;;;;18.95;8.02;;;19.70;99.90;;;;;;5065669;28;20041;-72
2023/06/29 06:13:21;;;;;;;20.17;8.38;;;19.80;99.90;;;;;;5063039;28;20043;-73
2023/06/29 06:15:46;;;;;;;17.33;8.50;;;19.80;99.90;;;;;;5074209;28;20506;-69
2023/06/29 06:18:12;;;;;;;20.00;8.77;;;19.80;99.90;;;;;;5065933;28;20036;-72
2023/06/29 06:20:37;;;;;;;19.92;8.88;;;19.90;99.90;;;;;;5059176;28;20540;-72
2023/06/29 06:23:03;;;;;;;18.52;8.55;;;19.90;99.90;;;;;;5077650;28;20032;-72
2023/06/29 06:25:28;;;;;;;20.30;9.07;;;19.90;99.90;;;;;;5069631;28;20135;-72
2023/06/29 06:27:54;;;;;;;19.63;8.73;;;20.00;99.90;;;;;;5075542;28;20044;-72
2023/06/29 06:30:21;;;;;;;17.58;8.13;;;19.90;99.90;;;;;;5062966;28;20048;-73
2023/06/29 06:32:46;;;;;;;20.40;8.43;;;19.90;99.90;;;;;;5075846;28;20509;-72
2023/06/29 06:35:12;;;;;;;17.23;8.55;;;19.90;99.90;;;;;;5060395;28;20037;-73
2023/06/29 06:37:38;;;;;;;18.02;8.45;;;19.90;99.90;;;;;;5050979;28;20091;-73
2023/06/29 06:40:08;;;;;;;18.83;8.15;;;19.80;99.90;;;;;;5064282;28;20128;-72
2023/06/29 06:42:38;;;;;;;19.92;7.78;;;19.80;99.90;;;;;;5080624;28;20036;-72
2023/06/29 06:45:07;;;;;;;21.17;8.20;;;19.80;99.90;;;;;;5070681;28;20052;-73
2023/06/29 06:47:34;;;;;;;20.33;7.88;;;19.80;99.90;;;;;;5067084;28;20071;-72
2023/06/29 06:50:00;;;;;;;22.27;7.63;;;19.80;99.90;;;;;;5066747;28;20098;-73
2023/06/29 06:52:26;;;;;;;17.65;8.30;;;19.80;99.90;;;;;;5076157;28;20162;-73
2023/06/29 06:54:52;;;;;;;23.30;8.48;;;19.80;99.90;;;;;;5078823;28;20128;-73
2023/06/29 06:57:19;;;;;;;22.08;8.80;;;19.80;99.90;;;;;;5065350;28;20425;-72
2023/06/29 06:59:44;;;;;;;21.63;8.65;;;19.80;99.90;;;;;;5074440;28;20505;-73
2023/06/29 07:02:10;;;;;;;18.40;8.68;;;19.70;99.90;;;;;;5067982;28;20968;-73
2023/06/29 07:04:36;;;;;;;18.73;8.20;;;19.80;99.90;;;;;;5075697;28;20032;-73
2023/06/29 07:07:03;;;;;;;18.95;8.05;;;19.80;99.90;;;;;;5077801;28;20493;-72
2023/06/29 07:09:29;;;;;;;20.25;8.27;;;19.70;99.90;;;;;;5079437;28;20119;-73
2023/06/29 07:11:55;;;;;;;18.90;7.93;;;19.70;99.90;;;;;;5070813;28;20572;-73
2023/06/29 07:14:23;;;;;;;19.25;8.68;;;19.70;99.90;;;;;;5071832;28;20121;-73
2023/06/29 07:16:49;;;;;;;20.88;8.98;;;19.70;99.90;;;;;;5068897;28;20035;-73
2023/06/29 07:19:15;;;;;;;22.20;8.82;;;19.70;99.90;;;;;;5076483;28;20032;-73
2023/06/29 07:21:42;;;;;;;19.85;8.68;;;19.70;99.90;;;;;;5067754;28;20069;-73
2023/06/29 07:24:08;;;;;;;19.95;8.57;;;19.60;99.90;;;;;;5070070;28;20040;-72
2023/06/29 07:26:35;;;;;;;18.88;8.55;;;19.60;99.90;;;;;;5062210;28;20048;-72
2023/06/29 07:29:01;;;;;;;17.33;8.07;;;19.70;99.90;;;;;;5047446;28;20119;-71
2023/06/29 07:31:28;;;;;;;18.77;7.60;;;19.60;99.90;;;;;;5078267;28;20161;-70
2023/06/29 07:33:54;;;;;;;20.70;8.10;;;19.70;99.90;;;;;;5068677;28;20033;-73
2023/06/29 07:36:21;;;;;;;19.58;7.75;;;19.60;99.90;;;;;;5046708;28;20616;-73
2023/06/29 07:38:47;;;;;;;19.85;8.55;;;19.70;99.90;;;;;;5066268;28;20040;-73
2023/06/29 07:41:13;;;;;;;18.58;8.60;;;19.70;99.90;;;;;;5083966;28;20036;-73
2023/06/29 07:43:41;;;;;;;19.25;8.23;;;19.70;99.90;;;;;;5067550;28;20045;-73
2023/06/29 07:46:06;;;;;;;21.00;8.15;;;19.70;99.90;;;;;;5059532;28;20049;-73
2023/06/29 07:48:32;;;;;;;18.88;8.10;;;19.80;99.90;;;;;;5067795;28;20036;-73
2023/06/29 07:50:58;;;;;;;25.60;9.40;;;19.70;99.90;;;;;;5051918;28;20462;-74
2023/06/29 07:53:24;;;;;;;17.70;7.45;;;19.90;99.90;;;;;;5065375;28;20052;-73
2023/06/29 07:55:50;;;;;;;20.00;8.90;;;19.90;99.90;;;;;;5067982;28;20033;-73
2023/06/29 07:58:17;;;;;;;20.27;9.68;;;20.00;99.90;;;;;;5067477;28;20382;-73
2023/06/29 08:00:42;;;;;;;18.63;8.55;;;20.00;99.90;;;;;;5062598;28;20094;-73
2023/06/29 08:03:08;;;;;;;20.10;8.88;;;20.10;99.90;;;;;;5068729;28;20037;-73
2023/06/29 08:05:33;;;;;;;20.30;8.32;;;20.10;99.90;;;;;;5068016;28;20036;-73
2023/06/29 08:07:59;;;;;;;18.52;8.35;;;20.10;99.90;;;;;;5067460;28;20028;-73
2023/06/29 08:10:25;;;;;;;22.33;9.02;;;20.10;99.90;;;;;;5075058;28;20401;-73
2023/06/29 08:12:51;;;;;;;20.38;9.45;;;20.10;99.90;;;;;;5069991;28;20064;-73
2023/06/29 08:15:17;;;;;;;20.15;8.52;;;20.10;99.90;;;;;;5066869;28;20111;-73
2023/06/29 08:17:42;;;;;;;24.80;9.77;;;20.10;99.90;;;;;;5063510;28;20033;-73
2023/06/29 08:20:14;;;;;;;19.23;9.18;;;20.10;99.90;;;;;;5062382;28;20414;-73
2023/06/29 08:22:43;;;;;;;23.52;10.40;;;20.10;99.90;;;;;;5069056;28;20474;-73
2023/06/29 08:25:09;;;;;;;26.45;10.27;;;20.10;99.90;;;;;;5067603;28;20075;-73
2023/06/29 08:27:39;;;;;;;26.02;10.80;;;20.10;99.90;;;;;;5066441;28;20075;-73
2023/06/29 08:30:05;;;;;;;23.48;10.35;;;20.10;99.90;;;;;;5082935;28;20039;-73
2023/06/29 08:32:31;;;;;;;22.48;9.80;;;20.10;99.90;;;;;;5068958;28;20033;-73
2023/06/29 08:34:56;;;;;;;23.10;11.00;;;20.10;99.90;;;;;;5067466;28;20043;-73
2023/06/29 08:37:22;;;;;;;27.52;11.57;;;20.20;99.90;;;;;;5067034;28;20062;-73
2023/06/29 08:39:47;;;;;;;29.95;10.77;;;20.10;99.90;;;;;;5077180;28;20406;-73
2023/06/29 08:42:13;;;;;;;24.45;11.48;;;20.20;99.90;;;;;;5062527;28;20055;-74
2023/06/29 08:44:39;;;;;;;25.38;11.95;;;20.30;99.90;;;;;;5081566;28;20028;-74
2023/06/29 08:47:05;;;;;;;29.35;11.95;;;20.40;99.90;;;;;;5067450;28;20044;-74
2023/06/29 08:49:35;;;;;;;28.33;11.45;;;20.50;99.90;;;;;;5060071;28;20046;-73
2023/06/29 08:52:03;;;;;;;25.02;10.68;;;20.50;99.90;;;;;;5066110;28;20036;-73
2023/06/29 08:54:32;;;;;;;26.25;10.90;;;20.60;99.90;;;;;;5072776;28;20064;-74
2023/06/29 08:57:02;;;;;;;27.67;11.50;;;20.70;99.90;;;;;;5057374;28;20495;-73
2023/06/29 08:59:28;;;;;;;24.88;10.80;;;20.80;99.90;;;;;;5064500;28;20040;-73
2023/06/29 09:01:57;;;;;;;25.40;10.80;;;20.80;99.90;;;;;;5067152;28;20243;-73
2023/06/29 09:04:24;;;;;;;23.42;10.65;;;20.90;99.90;;;;;;5061582;28;20051;-73
2023/06/29 09:06:50;;;;;;;23.58;11.32;;;20.90;99.90;;;;;;5069612;28;20036;-73
2023/06/29 09:09:15;;;;;;;25.10;10.80;;;21.00;99.90;;;;;;5077523;28;20090;-73
2023/06/29 09:11:41;;;;;;;28.83;11.00;;;20.90;99.90;;;;;;5063231;28;20051;-74
2023/06/29 09:14:07;;;;;;;24.42;11.35;;;21.10;99.90;;;;;;5039648;28;20040;-73
2023/06/29 09:16:36;;;;;;;24.63;10.45;;;21.10;99.90;;;;;;5066306;28;20043;-74
2023/06/29 09:19:05;;;;;;;23.73;10.88;;;21.10;99.90;;;;;;5068973;28;20036;-74
2023/06/29 09:21:31;;;;;;;23.08;10.73;;;21.10;99.90;;;;;;5064995;28;20127;-73
2023/06/29 09:23:59;;;;;;;23.80;9.35;;;21.10;99.90;;;;;;5063720;28;20640;-73
2023/06/29 09:26:28;;;;;;;22.00;8.82;;;21.10;99.90;;;;;;5044672;28;20182;-74
2023/06/29 09:29:03;;;;;;;20.77;10.05;;;21.10;99.90;;;;;;5063020;28;20083;-73
2023/06/29 09:31:32;;;;;;;22.15;9.50;;;21.20;99.90;;;;;;5075354;28;20051;-73
2023/06/29 09:34:17;;;;;;;21.25;9.40;;;21.20;99.90;;;;;;5064308;28;20383;-73
2023/06/29 09:36:43;;;;;;;20.45;9.50;;;21.30;99.90;;;;;;5074360;28;20134;-73
2023/06/29 09:39:09;;;;;;;20.13;9.15;;;21.30;99.90;;;;;;5069775;28;20037;-73
2023/06/29 09:41:53;;;;;;;21.48;9.73;;;21.40;99.90;;;;;;5068073;28;20055;-72
2023/06/29 09:44:20;;;;;;;20.23;9.38;;;21.40;99.90;;;;;;5066321;28;20048;-75
2023/06/29 09:46:49;;;;;;;21.30;9.35;;;21.40;99.90;;;;;;5059831;28;20050;-73
2023/06/29 09:49:15;;;;;;;20.80;9.80;;;21.50;99.90;;;;;;5061742;28;20036;-73
2023/06/29 09:51:41;;;;;;;22.48;9.85;;;21.50;99.90;;;;;;5046923;28;20052;-73
2023/06/29 09:54:12;;;;;;;20.40;9.35;;;21.50;99.90;;;;;;5056271;28;20068;-73
2023/06/29 09:56:38;;;;;;;18.38;8.02;;;21.40;99.90;;;;;;5066751;28;20040;-73
2023/06/29 09:59:04;;;;;;;22.15;8.70;;;21.40;99.90;;;;;;5061485;28;20075;-73
2023/06/29 10:01:30;;;;;;;17.38;8.18;;;21.40;99.90;;;;;;5050697;28;20174;-73
2023/06/29 10:03:56;;;;;;;16.80;7.80;;;21.30;99.90;;;;;;5055072;28;20340;-73
2023/06/29 10:06:33;;;;;;;17.77;7.45;;;21.30;99.90;;;;;;5059698;28;20055;-72
2023/06/29 10:09:00;;;;;;;16.60;7.30;;;21.20;99.90;;;;;;5071046;28;20658;-73
2023/06/29 10:11:31;;;;;;;16.08;7.45;;;21.10;99.90;;;;;;5047086;28;20071;-73
2023/06/29 10:14:00;;;;;;;17.38;8.18;;;21.00;99.90;;;;;;5068327;28;20548;-72
2023/06/29 10:16:28;;;;;;;21.65;7.93;;;21.00;99.90;;;;;;5077097;28;20556;-73
2023/06/29 10:19:01;;;;;;;18.10;7.85;;;20.90;99.90;;;;;;5063227;28;20036;-73
2023/06/29 10:21:27;;;;;;;18.13;7.90;;;20.80;99.90;;;;;;5046993;28;20036;-72
2023/06/29 10:23:55;;;;;;;16.98;7.20;;;20.80;99.90;;;;;;5069040;28;20048;-72
2023/06/29 10:26:22;;;;;;;17.08;7.35;;;20.80;99.90;;;;;;5068343;28;20051;-72
2023/06/29 10:28:47;;;;;;;22.35;8.52;;;20.70;99.90;;;;;;5067120;28;20105;-72
2023/06/29 10:31:18;;;;;;;16.67;8.10;;;20.60;99.90;;;;;;5068699;28;20493;-73
2023/06/29 10:33:48;;;;;;;18.42;7.45;;;20.60;99.90;;;;;;5064559;28;20052;-73
2023/06/29 10:36:15;;;;;;;23.23;8.50;;;20.60;99.90;;;;;;5065176;28;20044;-72
2023/06/29 10:38:41;;;;;;;18.55;8.63;;;20.50;99.90;;;;;;5070268;28;20144;-73
2023/06/29 10:41:07;;;;;;;16.83;7.57;;;20.50;99.90;;;;;;5067363;28;20128;-72
2023/06/29 10:43:58;;;;;;;19.23;8.65;;;20.50;99.90;;;;;;5066904;28;20453;-72
2023/06/29 10:46:49;;;;;;;18.00;8.20;;;20.50;99.90;;;;;;5054917;28;20032;-73
2023/06/29 10:49:28;;;;;;;19.73;8.45;;;20.60;99.90;;;;;;5063838;28;20566;-73
2023/06/29 10:52:00;;;;;;;20.55;8.95;;;20.60;99.90;;;;;;5069256;28;20052;-73
2023/06/29 10:54:26;;;;;;;18.90;8.60;;;20.70;99.90;;;;;;5064363;28;20044;-73
2023/06/29 10:57:05;;;;;;;20.10;8.43;;;20.70;99.90;;;;;;5069227;28;20060;-73
2023/06/29 10:59:33;;;;;;;20.00;8.45;;;20.70;99.90;;;;;;5060135;28;20086;-74
2023/06/29 11:01:59;;;;;;;18.30;8.60;;;20.80;99.90;;;;;;5066214;28;20167;-74
2023/06/29 11:04:25;;;;;;;24.67;8.32;;;20.80;99.90;;;;;;5068280;28;20435;-72
2023/06/29 11:06:50;;;;;;;21.55;8.60;;;20.90;99.90;;;;;;5055117;28;20028;-73
2023/06/29 11:09:17;;;;;;;22.42;9.45;;;20.90;99.90;;;;;;5061560;28;20105;-72
2023/06/29 11:11:45;;;;;;;21.05;9.48;;;21.00;99.90;;;;;;5060346;28;20056;-73
2023/06/29 11:14:14;;;;;;;21.35;9.07;;;21.10;99.90;;;;;;5075958;28;20054;-73
2023/06/29 11:16:40;;;;;;;21.98;9.57;;;21.10;99.90;;;;;;5062938;28;20024;-73
2023/06/29 11:19:09;;;;;;;20.85;9.23;;;21.10;99.90;;;;;;5067373;28;20405;-73
2023/06/29 11:21:34;;;;;;;18.63;9.23;;;21.20;99.90;;;;;;5064059;28;20036;-73
2023/06/29 11:24:00;;;;;;;20.70;8.90;;;21.30;99.90;;;;;;5051412;28;20424;-73
2023/06/29 11:26:29;;;;;;;20.38;8.68;;;21.30;99.90;;;;;;5080548;28;20472;-73
2023/06/29 11:28:55;;;;;;;19.67;9.90;;;21.40;99.90;;;;;;5075091;28;20051;-73
2023/06/29 11:31:21;;;;;;;21.15;8.85;;;21.40;99.90;;;;;;5068339;28;20561;-73
2023/06/29 11:33:48;;;;;;;19.42;8.38;;;21.30;99.90;;;;;;5061683;28;20501;-73
2023/06/29 11:36:13;;;;;;;20.55;9.32;;;21.40;99.90;;;;;;5064498;28;20083;-73
2023/06/29 11:38:39;;;;;;;23.15;9.30;;;21.50;99.90;;;;;;5086821;28;20410;-73
2023/06/29 11:41:06;;;;;;;21.45;9.90;;;21.60;99.90;;;;;;5072453;28;20051;-73
2023/06/29 11:43:32;;;;;;;22.80;9.82;;;21.70;99.90;;;;;;5064995;28;20397;-73
2023/06/29 11:45:58;;;;;;;20.70;9.35;;;21.80;99.90;;;;;;5051477;28;20476;-73
2023/06/29 11:48:23;;;;;;;21.35;8.52;;;21.80;99.90;;;;;;5071187;28;20482;-73
2023/06/29 11:50:49;;;;;;;21.15;9.88;;;21.80;99.90;;;;;;5064553;28;20101;-73
2023/06/29 11:53:15;;;;;;;21.27;9.55;;;21.90;99.90;;;;;;5076927;28;20485;-73
2023/06/29 11:55:53;;;;;;;26.20;10.77;;;22.00;99.90;;;;;;5069425;28;20036;-73
2023/06/29 11:58:18;;;;;;;21.10;9.40;;;22.10;99.90;;;;;;5067147;28;20032;-73
2023/06/29 12:00:44;;;;;;;21.08;9.60;;;22.20;99.90;;;;;;5077754;28;20051;-73
2023/06/29 12:03:10;;;;;;;26.08;10.65;;;22.20;99.90;;;;;;5070913;28;20028;-73
2023/06/29 12:05:41;;;;;;;23.65;9.48;;;22.30;99.90;;;;;;5059610;28;20143;-73
2023/06/29 12:08:08;;;;;;;22.48;9.65;;;22.30;99.90;;;;;;5064724;28;20075;-73
2023/06/29 12:10:38;;;;;;;22.75;10.05;;;22.40;99.90;;;;;;5065103;28;20044;-73
2023/06/29 12:13:08;;;;;;;22.60;9.75;;;22.40;99.90;;;;;;5080740;28;20078;-73
2023/06/29 12:15:33;;;;;;;19.38;9.68;;;22.50;99.90;;;;;;5058605;28;20063;-73
2023/06/29 12:18:07;;;;;;;20.20;9.02;;;22.50;99.90;;;;;;5051372;28;20032;-73
2023/06/29 12:20:43;;;;;;;25.10;10.45;;;22.60;99.90;;;;;;5074093;28;20040;-73
2023/06/29 12:23:11;;;;;;;23.08;10.05;;;22.60;99.90;;;;;;5063222;28;20037;-73
2023/06/29 12:25:45;;;;;;;20.13;8.90;;;22.70;99.90;;;;;;5075332;28;20066;-73
2023/06/29 12:28:11;;;;;;;23.52;9.65;;;22.70;99.90;;;;;;5064798;28;20051;-71
2023/06/29 12:30:37;;;;;;;19.30;9.68;;;22.70;99.90;;;;;;5047575;28;20052;-73
2023/06/29 12:33:03;;;;;;;20.83;10.35;;;22.80;99.90;;;;;;5063837;28;20087;-73
2023/06/29 12:35:29;;;;;;;20.80;9.13;;;22.90;99.90;;;;;;5068885;28;20047;-73